Sunday, April 20, 2014
10:49 UTC
  |  Log In   |  Register Free
Airport Search:

New Richmond Regional Airport
(KRNH)

New Richmond Regional Airport Diagram
No Airport Diagram Available

FAA data valid effective April 3, 2014 until May 29, 2014 (unless otherwise noted).

 
 
 
 
 
 
 
 
 
 
 
 
 
 

Current Aviation Weather for New Richmond Regional Airport (KRNH)

The most recent METAR observation for KRNH was updated at: 0955 UTC
METAR Summary (Translated METAR)
KRNH
200955Z AUTO 00000KT 1/4SM FG OVC060 10/10 A3002 RMK AO2 T00980098
KOEO
(11.6 nm NW from KRNH)
200955Z AUTO 00000KT M1/4SM FG OVC001 07/07 A3004 RMK AO2 T00720072
TAF Summary (Translated TAF)
KRNH
200807Z 2008/2106 16005KT 3SM BR SCT025 OVC060 TEMPO 2008/2011 1/2SM -SHRA FG BKN020 OVC040 FM201300 VRB02KT P6SM SCT250 FM202200 07004KT P6SM SCT050
  Airport Weather Conditions for KRNH

 Current Weather at RNH
50° F
Fog
North winds at 0.0 mph
RNH NOAA Radar

Pressure: 30.02 in
Humidity: 100%
Wind: Calm
Dew Point: 50.2°F
Visibility: 0.50 mi


Airport Weather Forecast for KRNH

Translated METAR and TAF for KRNH
Translated METAR for KRNH (1049 UTC 20 April 2014)
found at http://aviationweather.gov/adds/metars/
 
METAR text: KRNH 201035Z AUTO 00000KT 1/4SM FG OVC060 09/09 A3003 RMK AO2 T00890089
Conditions at: KRNH (NEW RICHMOND MUN, WI, US) observed 1035 UTC 20 April 2014
Temperature: 8.9°C (48°F)
Dewpoint: 8.9°C (48°F) [RH = 100%]
Pressure (altimeter): 30.03 inches Hg (1017.0 mb)
Winds: calm
Visibility: 0.25 miles (0.40 km)
Ceiling: 6000 feet AGL
Clouds: overcast cloud deck at 6000 feet AGL
Weather: FG  (fog)
Translated TAF for KRNH
Forecast for: KRNH (NEW RICHMOND MUN, WI, US)
TAF Text: KRNH 201009Z 2010/2106 00000KT 2SM BR SCT025 OVC060
Forecast period: 1000 to 1300 UTC 20 April 2014
Forecast type: FROM: standard forecast or significant change
Winds: calm
Visibility: 2.00 miles (3.22 km)
Ceiling: 6000 feet AGL
Clouds: scattered clouds at 2500 feet AGL
overcast cloud deck at 6000 feet AGL
Weather: BR  (mist)
TAF Text: TEMPO 2010/2013 1/4SM FG VV002
Forecast period: 1000 to 1300 UTC 20 April 2014
Forecast type: TEMPORARY: The following changes expected for less than half the time period
Visibility: 0.25 miles (0.40 km)
Ceiling: indefinite ceiling with vertical visibility of 200 feet AGL
Clouds: obscured sky
Weather: FG  (fog)
TAF Text: FM201300 VRB02KT P6SM SCT250
Forecast period: 1300 to 2200 UTC 20 April 2014
Forecast type: FROM: standard forecast or significant change
Winds: variable direction winds at 2 MPH (2 knots; 1.0 m/s)
Visibility: 6 or more miles (10+ km)
Clouds: scattered clouds at 25000 feet AGL
Weather: no significant weather forecast for this period
TAF Text: FM202200 07004KT P6SM SCT050
Forecast period: 2200 UTC 20 April 2014 to 0600 UTC 21 April 2014
Forecast type: FROM: standard forecast or significant change
Winds: from the ENE (70 degrees) at 5 MPH (4 knots; 2.1 m/s)
Visibility: 6 or more miles (10+ km)
Clouds: scattered clouds at 5000 feet AGL
Weather: no significant weather forecast for this period

Find All Airport Services Find A Hotel Find A Rental Car Find A Golf Course Find A Restaurant $100 Hamburger



FBO's on the Field
FBO Company Facility Photos Services Transportation Aviation Fuel Prices: Prices include tax
Catering Weather Repair Courtesy Rental Type 100LL JetA JetA+ MOGAS 8087
 
Griggs Aviation

This FBO has not yet been rated
FS:Independent
Last Updated: Mar-25
Login to update fuel prices
SS:
Contact Griggs AviationMore FBO Information
 
Add another FBO Facility Photos Catering Weather Repair Courtesy Rental Type 100LL JetA JetA+ MOGAS 8087
Services Transportation Aviation Fuel Prices: Prices include tax


GlobalAir.com Airport Resource Center model-print
model-print
model-print
model-print